sensor_id;sensor_type;location;lat;lon;timestamp;temperature;humidity
68746;SHT31;73143;45.456;11.064;2023-12-14T00:00:25;8.13;89.42
68746;SHT31;73143;45.456;11.064;2023-12-14T00:03:02;8.14;89.51
68746;SHT31;73143;45.456;11.064;2023-12-14T00:05:40;8.18;89.48
68746;SHT31;73143;45.456;11.064;2023-12-14T00:08:17;8.19;89.40
68746;SHT31;73143;45.456;11.064;2023-12-14T00:10:56;8.20;89.28
68746;SHT31;73143;45.456;11.064;2023-12-14T00:13:40;8.23;89.30
68746;SHT31;73143;45.456;11.064;2023-12-14T00:16:17;8.25;89.29
68746;SHT31;73143;45.456;11.064;2023-12-14T00:18:54;8.25;89.20
68746;SHT31;73143;45.456;11.064;2023-12-14T00:21:31;8.23;89.05
68746;SHT31;73143;45.456;11.064;2023-12-14T00:24:09;8.15;88.97
68746;SHT31;73143;45.456;11.064;2023-12-14T00:26:47;8.11;89.03
68746;SHT31;73143;45.456;11.064;2023-12-14T00:29:24;8.07;89.09
68746;SHT31;73143;45.456;11.064;2023-12-14T00:32:01;8.05;89.15
68746;SHT31;73143;45.456;11.064;2023-12-14T00:34:41;8.02;89.18
68746;SHT31;73143;45.456;11.064;2023-12-14T00:37:19;7.99;89.28
68746;SHT31;73143;45.456;11.064;2023-12-14T00:39:56;7.98;89.47
68746;SHT31;73143;45.456;11.064;2023-12-14T00:42:34;7.98;89.51
68746;SHT31;73143;45.456;11.064;2023-12-14T00:45:11;7.99;89.50
68746;SHT31;73143;45.456;11.064;2023-12-14T00:47:49;7.98;89.57
68746;SHT31;73143;45.456;11.064;2023-12-14T00:50:27;7.98;89.44
68746;SHT31;73143;45.456;11.064;2023-12-14T00:53:04;7.97;89.43
68746;SHT31;73143;45.456;11.064;2023-12-14T00:55:41;7.97;89.43
68746;SHT31;73143;45.456;11.064;2023-12-14T00:58:18;7.97;89.41
68746;SHT31;73143;45.456;11.064;2023-12-14T01:00:55;7.99;89.41
68746;SHT31;73143;45.456;11.064;2023-12-14T01:03:32;8.02;89.40
68746;SHT31;73143;45.456;11.064;2023-12-14T01:06:10;8.05;89.36
68746;SHT31;73143;45.456;11.064;2023-12-14T01:08:47;8.08;89.30
68746;SHT31;73143;45.456;11.064;2023-12-14T01:11:25;8.12;89.28
68746;SHT31;73143;45.456;11.064;2023-12-14T01:14:02;8.16;89.11
68746;SHT31;73143;45.456;11.064;2023-12-14T01:16:40;8.19;89.00
68746;SHT31;73143;45.456;11.064;2023-12-14T01:19:18;8.22;88.87
68746;SHT31;73143;45.456;11.064;2023-12-14T01:21:55;8.20;88.70
68746;SHT31;73143;45.456;11.064;2023-12-14T01:24:32;8.19;88.82
68746;SHT31;73143;45.456;11.064;2023-12-14T01:27:10;8.20;88.93
68746;SHT31;73143;45.456;11.064;2023-12-14T01:29:47;8.23;89.01
68746;SHT31;73143;45.456;11.064;2023-12-14T01:32:25;8.24;88.91
68746;SHT31;73143;45.456;11.064;2023-12-14T01:35:02;8.26;88.95
68746;SHT31;73143;45.456;11.064;2023-12-14T01:37:42;8.29;88.96
68746;SHT31;73143;45.456;11.064;2023-12-14T01:40:20;8.30;88.93
68746;SHT31;73143;45.456;11.064;2023-12-14T01:43:07;8.32;88.90
68746;SHT31;73143;45.456;11.064;2023-12-14T01:45:44;8.32;88.82
68746;SHT31;73143;45.456;11.064;2023-12-14T01:48:21;8.33;88.89
68746;SHT31;73143;45.456;11.064;2023-12-14T01:50:58;8.34;88.91
68746;SHT31;73143;45.456;11.064;2023-12-14T01:53:36;8.37;88.85
68746;SHT31;73143;45.456;11.064;2023-12-14T01:56:13;8.39;88.79
68746;SHT31;73143;45.456;11.064;2023-12-14T01:58:51;8.41;88.75
68746;SHT31;73143;45.456;11.064;2023-12-14T02:01:30;8.42;88.71
68746;SHT31;73143;45.456;11.064;2023-12-14T02:04:13;8.42;88.69
68746;SHT31;73143;45.456;11.064;2023-12-14T02:06:51;8.42;88.70
68746;SHT31;73143;45.456;11.064;2023-12-14T02:09:29;8.44;88.71
68746;SHT31;73143;45.456;11.064;2023-12-14T02:12:07;8.44;88.62
68746;SHT31;73143;45.456;11.064;2023-12-14T02:14:45;8.43;88.67
68746;SHT31;73143;45.456;11.064;2023-12-14T02:17:24;8.44;88.70
68746;SHT31;73143;45.456;11.064;2023-12-14T02:20:02;8.46;88.70
68746;SHT31;73143;45.456;11.064;2023-12-14T02:22:51;8.48;88.70
68746;SHT31;73143;45.456;11.064;2023-12-14T02:25:28;8.49;88.57
68746;SHT31;73143;45.456;11.064;2023-12-14T02:28:05;8.46;88.54
68746;SHT31;73143;45.456;11.064;2023-12-14T02:30:42;8.44;88.70
68746;SHT31;73143;45.456;11.064;2023-12-14T02:33:19;8.43;88.75
68746;SHT31;73143;45.456;11.064;2023-12-14T02:35:57;8.40;88.81
68746;SHT31;73143;45.456;11.064;2023-12-14T02:38:36;8.39;88.91
68746;SHT31;73143;45.456;11.064;2023-12-14T02:41:14;8.40;88.95
68746;SHT31;73143;45.456;11.064;2023-12-14T02:43:51;8.42;88.90
68746;SHT31;73143;45.456;11.064;2023-12-14T02:46:28;8.43;88.87
68746;SHT31;73143;45.456;11.064;2023-12-14T02:49:05;8.44;88.81
68746;SHT31;73143;45.456;11.064;2023-12-14T02:51:42;8.44;88.70
68746;SHT31;73143;45.456;11.064;2023-12-14T02:54:19;8.44;88.65
68746;SHT31;73143;45.456;11.064;2023-12-14T02:56:56;8.42;88.61
68746;SHT31;73143;45.456;11.064;2023-12-14T02:59:34;8.40;88.66
68746;SHT31;73143;45.456;11.064;2023-12-14T03:02:11;8.40;88.70
68746;SHT31;73143;45.456;11.064;2023-12-14T03:04:48;8.40;88.66
68746;SHT31;73143;45.456;11.064;2023-12-14T03:07:25;8.41;88.61
68746;SHT31;73143;45.456;11.064;2023-12-14T03:10:04;8.41;88.57
68746;SHT31;73143;45.456;11.064;2023-12-14T03:12:43;8.40;88.45
68746;SHT31;73143;45.456;11.064;2023-12-14T03:15:21;8.40;88.50
68746;SHT31;73143;45.456;11.064;2023-12-14T03:17:57;8.40;88.48
68746;SHT31;73143;45.456;11.064;2023-12-14T03:20:35;8.37;88.46
68746;SHT31;73143;45.456;11.064;2023-12-14T03:23:12;8.35;88.56
68746;SHT31;73143;45.456;11.064;2023-12-14T03:25:49;8.34;88.61
68746;SHT31;73143;45.456;11.064;2023-12-14T03:28:26;8.34;88.66
68746;SHT31;73143;45.456;11.064;2023-12-14T03:31:04;8.34;88.70
68746;SHT31;73143;45.456;11.064;2023-12-14T03:33:43;8.36;88.63
68746;SHT31;73143;45.456;11.064;2023-12-14T03:36:20;8.36;88.60
68746;SHT31;73143;45.456;11.064;2023-12-14T03:38:57;8.36;88.48
68746;SHT31;73143;45.456;11.064;2023-12-14T03:41:33;8.33;88.38
68746;SHT31;73143;45.456;11.064;2023-12-14T03:44:11;8.31;88.30
68746;SHT31;73143;45.456;11.064;2023-12-14T03:46:48;8.29;88.25
68746;SHT31;73143;45.456;11.064;2023-12-14T03:49:27;8.24;88.22
68746;SHT31;73143;45.456;11.064;2023-12-14T03:52:07;8.23;88.27
68746;SHT31;73143;45.456;11.064;2023-12-14T03:54:46;8.23;88.26
68746;SHT31;73143;45.456;11.064;2023-12-14T03:57:24;8.22;88.24
68746;SHT31;73143;45.456;11.064;2023-12-14T04:00:01;8.22;88.28
68746;SHT31;73143;45.456;11.064;2023-12-14T04:02:42;8.22;88.33
68746;SHT31;73143;45.456;11.064;2023-12-14T04:05:19;8.23;88.40
68746;SHT31;73143;45.456;11.064;2023-12-14T04:07:57;8.24;88.41
68746;SHT31;73143;45.456;11.064;2023-12-14T04:10:34;8.24;88.48
68746;SHT31;73143;45.456;11.064;2023-12-14T04:13:11;8.23;88.52
68746;SHT31;73143;45.456;11.064;2023-12-14T04:15:48;8.24;88.51
68746;SHT31;73143;45.456;11.064;2023-12-14T04:18:26;8.25;88.50
68746;SHT31;73143;45.456;11.064;2023-12-14T04:21:03;8.26;88.49
68746;SHT31;73143;45.456;11.064;2023-12-14T04:23:41;8.27;88.42
68746;SHT31;73143;45.456;11.064;2023-12-14T04:26:18;8.20;88.31
68746;SHT31;73143;45.456;11.064;2023-12-14T04:28:56;8.11;88.60
68746;SHT31;73143;45.456;11.064;2023-12-14T04:31:34;8.09;88.88
68746;SHT31;73143;45.456;11.064;2023-12-14T04:34:11;8.10;89.07
68746;SHT31;73143;45.456;11.064;2023-12-14T04:36:49;8.12;89.01
68746;SHT31;73143;45.456;11.064;2023-12-14T04:39:28;8.12;89.05
68746;SHT31;73143;45.456;11.064;2023-12-14T04:42:06;8.14;89.04
68746;SHT31;73143;45.456;11.064;2023-12-14T04:44:43;8.15;89.00
68746;SHT31;73143;45.456;11.064;2023-12-14T04:47:21;8.16;88.84
68746;SHT31;73143;45.456;11.064;2023-12-14T04:49:58;8.14;88.72
68746;SHT31;73143;45.456;11.064;2023-12-14T04:52:37;8.16;88.64
68746;SHT31;73143;45.456;11.064;2023-12-14T04:55:15;8.14;88.43
68746;SHT31;73143;45.456;11.064;2023-12-14T04:57:52;8.14;88.54
68746;SHT31;73143;45.456;11.064;2023-12-14T05:00:29;8.16;88.47
68746;SHT31;73143;45.456;11.064;2023-12-14T05:03:07;8.17;88.28
68746;SHT31;73143;45.456;11.064;2023-12-14T05:05:44;8.19;88.02
68746;SHT31;73143;45.456;11.064;2023-12-14T05:08:22;8.18;87.82
68746;SHT31;73143;45.456;11.064;2023-12-14T05:10:59;8.19;87.57
68746;SHT31;73143;45.456;11.064;2023-12-14T05:13:37;8.19;87.25
68746;SHT31;73143;45.456;11.064;2023-12-14T05:16:16;8.20;86.92
68746;SHT31;73143;45.456;11.064;2023-12-14T05:18:55;8.18;86.53
68746;SHT31;73143;45.456;11.064;2023-12-14T05:21:32;8.14;85.98
68746;SHT31;73143;45.456;11.064;2023-12-14T05:24:10;8.12;86.08
68746;SHT31;73143;45.456;11.064;2023-12-14T05:26:47;8.10;86.14
68746;SHT31;73143;45.456;11.064;2023-12-14T05:29:24;8.07;86.02
68746;SHT31;73143;45.456;11.064;2023-12-14T05:32:02;8.03;86.04
68746;SHT31;73143;45.456;11.064;2023-12-14T05:34:40;8.03;86.04
68746;SHT31;73143;45.456;11.064;2023-12-14T05:37:17;8.01;85.91
68746;SHT31;73143;45.456;11.064;2023-12-14T05:39:55;8.00;85.96
68746;SHT31;73143;45.456;11.064;2023-12-14T05:42:32;7.99;85.91
68746;SHT31;73143;45.456;11.064;2023-12-14T05:45:10;7.98;85.76
68746;SHT31;73143;45.456;11.064;2023-12-14T05:47:47;7.97;85.63
68746;SHT31;73143;45.456;11.064;2023-12-14T05:50:24;7.95;85.60
68746;SHT31;73143;45.456;11.064;2023-12-14T05:53:01;7.92;85.63
68746;SHT31;73143;45.456;11.064;2023-12-14T05:55:38;7.87;85.58
68746;SHT31;73143;45.456;11.064;2023-12-14T05:58:15;7.80;85.78
68746;SHT31;73143;45.456;11.064;2023-12-14T06:00:52;7.74;86.04
68746;SHT31;73143;45.456;11.064;2023-12-14T06:03:29;7.67;85.99
68746;SHT31;73143;45.456;11.064;2023-12-14T06:06:08;7.63;86.00
68746;SHT31;73143;45.456;11.064;2023-12-14T06:08:45;7.60;85.94
68746;SHT31;73143;45.456;11.064;2023-12-14T06:11:23;7.51;86.25
68746;SHT31;73143;45.456;11.064;2023-12-14T06:13:59;7.45;86.63
68746;SHT31;73143;45.456;11.064;2023-12-14T06:16:38;7.39;86.68
68746;SHT31;73143;45.456;11.064;2023-12-14T06:19:15;7.33;86.87
68746;SHT31;73143;45.456;11.064;2023-12-14T06:21:52;7.30;87.03
68746;SHT31;73143;45.456;11.064;2023-12-14T06:24:29;7.26;87.06
68746;SHT31;73143;45.456;11.064;2023-12-14T06:27:06;7.24;87.21
68746;SHT31;73143;45.456;11.064;2023-12-14T06:29:44;7.18;86.99
68746;SHT31;73143;45.456;11.064;2023-12-14T06:32:21;7.11;87.24
68746;SHT31;73143;45.456;11.064;2023-12-14T06:34:58;7.07;87.32
68746;SHT31;73143;45.456;11.064;2023-12-14T06:37:35;7.04;87.56
68746;SHT31;73143;45.456;11.064;2023-12-14T06:40:13;7.03;87.73
68746;SHT31;73143;45.456;11.064;2023-12-14T06:42:51;7.01;87.79
68746;SHT31;73143;45.456;11.064;2023-12-14T06:45:28;7.01;87.99
68746;SHT31;73143;45.456;11.064;2023-12-14T06:48:05;7.03;88.13
68746;SHT31;73143;45.456;11.064;2023-12-14T06:50:43;7.05;88.35
68746;SHT31;73143;45.456;11.064;2023-12-14T06:53:21;7.07;88.29
68746;SHT31;73143;45.456;11.064;2023-12-14T06:55:59;7.09;88.22
68746;SHT31;73143;45.456;11.064;2023-12-14T06:58:41;7.10;88.38
68746;SHT31;73143;45.456;11.064;2023-12-14T07:01:20;7.11;88.39
68746;SHT31;73143;45.456;11.064;2023-12-14T07:03:57;7.13;88.43
68746;SHT31;73143;45.456;11.064;2023-12-14T07:06:33;7.14;88.40
68746;SHT31;73143;45.456;11.064;2023-12-14T07:09:10;7.14;88.35
68746;SHT31;73143;45.456;11.064;2023-12-14T07:11:48;7.15;88.55
68746;SHT31;73143;45.456;11.064;2023-12-14T07:14:26;7.17;88.56
68746;SHT31;73143;45.456;11.064;2023-12-14T07:17:05;7.18;88.50
68746;SHT31;73143;45.456;11.064;2023-12-14T07:19:42;7.20;88.58
68746;SHT31;73143;45.456;11.064;2023-12-14T07:22:19;7.19;88.41
68746;SHT31;73143;45.456;11.064;2023-12-14T07:24:56;7.18;88.54
68746;SHT31;73143;45.456;11.064;2023-12-14T07:27:34;7.19;88.63
68746;SHT31;73143;45.456;11.064;2023-12-14T07:30:13;7.20;88.60
68746;SHT31;73143;45.456;11.064;2023-12-14T07:32:51;7.19;88.49
68746;SHT31;73143;45.456;11.064;2023-12-14T07:35:28;7.18;88.41
68746;SHT31;73143;45.456;11.064;2023-12-14T07:38:05;7.19;88.56
68746;SHT31;73143;45.456;11.064;2023-12-14T07:40:40;7.22;88.62
68746;SHT31;73143;45.456;11.064;2023-12-14T07:43:18;7.26;88.71
68746;SHT31;73143;45.456;11.064;2023-12-14T07:45:57;7.31;88.74
68746;SHT31;73143;45.456;11.064;2023-12-14T07:48:34;7.33;88.71
68746;SHT31;73143;45.456;11.064;2023-12-14T07:51:11;7.34;88.68
68746;SHT31;73143;45.456;11.064;2023-12-14T07:53:48;7.32;88.36
68746;SHT31;73143;45.456;11.064;2023-12-14T07:56:26;7.30;88.43
68746;SHT31;73143;45.456;11.064;2023-12-14T07:59:04;7.31;88.61
68746;SHT31;73143;45.456;11.064;2023-12-14T08:01:41;7.33;88.71
68746;SHT31;73143;45.456;11.064;2023-12-14T08:04:18;7.39;88.75
68746;SHT31;73143;45.456;11.064;2023-12-14T08:06:55;7.42;88.59
68746;SHT31;73143;45.456;11.064;2023-12-14T08:09:32;7.45;88.47
68746;SHT31;73143;45.456;11.064;2023-12-14T08:12:09;7.46;88.48
68746;SHT31;73143;45.456;11.064;2023-12-14T08:14:47;7.49;88.50
68746;SHT31;73143;45.456;11.064;2023-12-14T08:17:25;7.52;88.38
68746;SHT31;73143;45.456;11.064;2023-12-14T08:20:03;7.52;88.13
68746;SHT31;73143;45.456;11.064;2023-12-14T08:22:44;7.54;87.97
68746;SHT31;73143;45.456;11.064;2023-12-14T08:25:22;7.54;87.78
68746;SHT31;73143;45.456;11.064;2023-12-14T08:27:59;7.52;87.77
68746;SHT31;73143;45.456;11.064;2023-12-14T08:30:36;7.54;87.84
68746;SHT31;73143;45.456;11.064;2023-12-14T08:33:15;7.57;87.88
68746;SHT31;73143;45.456;11.064;2023-12-14T08:35:52;7.59;87.79
68746;SHT31;73143;45.456;11.064;2023-12-14T08:38:30;7.58;87.79
68746;SHT31;73143;45.456;11.064;2023-12-14T08:41:07;7.61;87.98
68746;SHT31;73143;45.456;11.064;2023-12-14T08:43:46;7.66;88.01
68746;SHT31;73143;45.456;11.064;2023-12-14T08:46:25;7.70;87.81
68746;SHT31;73143;45.456;11.064;2023-12-14T08:49:10;7.75;87.78
68746;SHT31;73143;45.456;11.064;2023-12-14T08:51:49;7.80;87.69
68746;SHT31;73143;45.456;11.064;2023-12-14T08:54:26;7.84;87.48
68746;SHT31;73143;45.456;11.064;2023-12-14T08:57:03;7.86;87.33
68746;SHT31;73143;45.456;11.064;2023-12-14T08:59:41;7.87;87.27
68746;SHT31;73143;45.456;11.064;2023-12-14T09:02:17;7.86;87.06
68746;SHT31;73143;45.456;11.064;2023-12-14T09:04:55;7.81;86.80
68746;SHT31;73143;45.456;11.064;2023-12-14T09:07:32;7.79;86.64
68746;SHT31;73143;45.456;11.064;2023-12-14T09:10:13;7.77;86.82
68746;SHT31;73143;45.456;11.064;2023-12-14T09:12:51;7.82;86.82
68746;SHT31;73143;45.456;11.064;2023-12-14T09:15:29;7.82;86.42
68746;SHT31;73143;45.456;11.064;2023-12-14T09:18:07;7.83;86.44
68746;SHT31;73143;45.456;11.064;2023-12-14T09:20:45;7.86;86.39
68746;SHT31;73143;45.456;11.064;2023-12-14T09:23:35;7.88;86.37
68746;SHT31;73143;45.456;11.064;2023-12-14T09:26:13;7.92;86.50
68746;SHT31;73143;45.456;11.064;2023-12-14T09:28:50;7.95;86.36
68746;SHT31;73143;45.456;11.064;2023-12-14T09:31:28;7.97;86.20
68746;SHT31;73143;45.456;11.064;2023-12-14T09:34:06;7.99;86.16
68746;SHT31;73143;45.456;11.064;2023-12-14T09:36:43;7.98;86.16
68746;SHT31;73143;45.456;11.064;2023-12-14T09:39:23;8.00;86.31
68746;SHT31;73143;45.456;11.064;2023-12-14T09:42:03;8.01;86.51
68746;SHT31;73143;45.456;11.064;2023-12-14T09:44:40;8.02;86.55
68746;SHT31;73143;45.456;11.064;2023-12-14T09:47:18;8.01;86.40
68746;SHT31;73143;45.456;11.064;2023-12-14T09:49:57;7.98;86.30
68746;SHT31;73143;45.456;11.064;2023-12-14T09:52:35;7.95;86.35
68746;SHT31;73143;45.456;11.064;2023-12-14T09:55:15;7.97;86.59
68746;SHT31;73143;45.456;11.064;2023-12-14T09:57:51;8.01;86.68
68746;SHT31;73143;45.456;11.064;2023-12-14T10:00:35;8.06;86.70
68746;SHT31;73143;45.456;11.064;2023-12-14T10:03:21;8.10;86.55
68746;SHT31;73143;45.456;11.064;2023-12-14T10:06:01;8.11;85.99
68746;SHT31;73143;45.456;11.064;2023-12-14T10:08:40;8.10;86.18
68746;SHT31;73143;45.456;11.064;2023-12-14T10:11:28;8.16;86.25
68746;SHT31;73143;45.456;11.064;2023-12-14T10:14:05;8.17;86.03
68746;SHT31;73143;45.456;11.064;2023-12-14T10:16:57;8.13;86.01
68746;SHT31;73143;45.456;11.064;2023-12-14T10:19:49;8.16;86.13
68746;SHT31;73143;45.456;11.064;2023-12-14T10:22:26;8.15;85.82
68746;SHT31;73143;45.456;11.064;2023-12-14T10:25:07;8.17;85.89
68746;SHT31;73143;45.456;11.064;2023-12-14T10:27:44;8.19;85.93
68746;SHT31;73143;45.456;11.064;2023-12-14T10:30:23;8.20;86.17
68746;SHT31;73143;45.456;11.064;2023-12-14T10:33:04;8.22;86.17
68746;SHT31;73143;45.456;11.064;2023-12-14T10:35:44;8.24;86.37
68746;SHT31;73143;45.456;11.064;2023-12-14T10:38:21;8.29;86.39
68746;SHT31;73143;45.456;11.064;2023-12-14T10:41:04;8.35;86.52
68746;SHT31;73143;45.456;11.064;2023-12-14T10:43:43;8.40;86.69
68746;SHT31;73143;45.456;11.064;2023-12-14T10:46:42;8.45;86.84
68746;SHT31;73143;45.456;11.064;2023-12-14T10:49:25;8.45;86.57
68746;SHT31;73143;45.456;11.064;2023-12-14T10:52:03;8.46;86.50
68746;SHT31;73143;45.456;11.064;2023-12-14T10:54:43;8.41;86.32
68746;SHT31;73143;45.456;11.064;2023-12-14T10:57:28;8.41;86.51
68746;SHT31;73143;45.456;11.064;2023-12-14T11:00:07;8.45;86.79
68746;SHT31;73143;45.456;11.064;2023-12-14T11:02:51;8.49;86.76
68746;SHT31;73143;45.456;11.064;2023-12-14T11:05:28;8.54;86.81
68746;SHT31;73143;45.456;11.064;2023-12-14T11:08:05;8.57;86.86
68746;SHT31;73143;45.456;11.064;2023-12-14T11:10:43;8.59;86.89
68746;SHT31;73143;45.456;11.064;2023-12-14T11:13:39;8.63;86.99
68746;SHT31;73143;45.456;11.064;2023-12-14T11:16:18;8.69;86.89
68746;SHT31;73143;45.456;11.064;2023-12-14T11:25:07;8.82;86.85
68746;SHT31;73143;45.456;11.064;2023-12-14T11:27:45;8.82;86.80
68746;SHT31;73143;45.456;11.064;2023-12-14T11:30:24;8.85;87.00
68746;SHT31;73143;45.456;11.064;2023-12-14T11:33:20;8.90;87.10
68746;SHT31;73143;45.456;11.064;2023-12-14T11:35:58;8.92;87.11
68746;SHT31;73143;45.456;11.064;2023-12-14T11:38:35;8.95;87.13
68746;SHT31;73143;45.456;11.064;2023-12-14T11:41:12;8.98;86.83
68746;SHT31;73143;45.456;11.064;2023-12-14T11:43:49;8.99;86.64
68746;SHT31;73143;45.456;11.064;2023-12-14T11:46:26;9.02;86.45
68746;SHT31;73143;45.456;11.064;2023-12-14T11:49:04;9.02;86.43
68746;SHT31;73143;45.456;11.064;2023-12-14T11:51:42;9.03;86.47
68746;SHT31;73143;45.456;11.064;2023-12-14T11:54:26;9.05;86.43
68746;SHT31;73143;45.456;11.064;2023-12-14T11:57:05;9.08;86.31
68746;SHT31;73143;45.456;11.064;2023-12-14T11:59:42;9.10;86.18
68746;SHT31;73143;45.456;11.064;2023-12-14T12:02:24;9.11;85.92
68746;SHT31;73143;45.456;11.064;2023-12-14T12:05:04;9.11;85.83
68746;SHT31;73143;45.456;11.064;2023-12-14T12:07:47;9.12;85.73
68746;SHT31;73143;45.456;11.064;2023-12-14T12:10:30;9.12;85.81
68746;SHT31;73143;45.456;11.064;2023-12-14T12:13:08;9.14;85.87
68746;SHT31;73143;45.456;11.064;2023-12-14T12:15:50;9.15;85.82
68746;SHT31;73143;45.456;11.064;2023-12-14T12:18:27;9.14;85.80
68746;SHT31;73143;45.456;11.064;2023-12-14T12:21:08;9.16;85.93
68746;SHT31;73143;45.456;11.064;2023-12-14T12:23:45;9.19;85.94
68746;SHT31;73143;45.456;11.064;2023-12-14T12:26:23;9.21;85.90
68746;SHT31;73143;45.456;11.064;2023-12-14T12:29:00;9.23;85.76
68746;SHT31;73143;45.456;11.064;2023-12-14T12:31:39;9.24;85.67
68746;SHT31;73143;45.456;11.064;2023-12-14T12:34:16;9.26;85.83
68746;SHT31;73143;45.456;11.064;2023-12-14T12:36:54;9.28;85.93
68746;SHT31;73143;45.456;11.064;2023-12-14T12:39:32;9.32;85.89
68746;SHT31;73143;45.456;11.064;2023-12-14T12:42:09;9.34;85.87
68746;SHT31;73143;45.456;11.064;2023-12-14T12:44:47;9.38;85.96
68746;SHT31;73143;45.456;11.064;2023-12-14T12:47:24;9.41;85.90
68746;SHT31;73143;45.456;11.064;2023-12-14T12:50:02;9.43;85.70
68746;SHT31;73143;45.456;11.064;2023-12-14T12:52:43;9.42;85.48
68746;SHT31;73143;45.456;11.064;2023-12-14T12:55:20;9.44;85.48
68746;SHT31;73143;45.456;11.064;2023-12-14T12:57:57;9.43;85.41
68746;SHT31;73143;45.456;11.064;2023-12-14T13:00:36;9.43;85.47
68746;SHT31;73143;45.456;11.064;2023-12-14T13:03:13;9.43;85.44
68746;SHT31;73143;45.456;11.064;2023-12-14T13:05:50;9.39;85.29
68746;SHT31;73143;45.456;11.064;2023-12-14T13:08:26;9.35;85.63
68746;SHT31;73143;45.456;11.064;2023-12-14T13:11:04;9.38;85.73
68746;SHT31;73143;45.456;11.064;2023-12-14T13:13:41;9.43;85.72
68746;SHT31;73143;45.456;11.064;2023-12-14T13:16:18;9.49;85.61
68746;SHT31;73143;45.456;11.064;2023-12-14T13:18:59;9.53;85.55
68746;SHT31;73143;45.456;11.064;2023-12-14T13:21:35;9.56;85.59
68746;SHT31;73143;45.456;11.064;2023-12-14T13:24:12;9.57;85.53
68746;SHT31;73143;45.456;11.064;2023-12-14T13:26:49;9.57;85.55
68746;SHT31;73143;45.456;11.064;2023-12-14T13:29:26;9.55;85.40
68746;SHT31;73143;45.456;11.064;2023-12-14T13:32:04;9.54;85.43
68746;SHT31;73143;45.456;11.064;2023-12-14T13:34:42;9.53;85.62
68746;SHT31;73143;45.456;11.064;2023-12-14T13:37:19;9.55;85.70
68746;SHT31;73143;45.456;11.064;2023-12-14T13:39:56;9.57;85.64
68746;SHT31;73143;45.456;11.064;2023-12-14T13:42:35;9.59;85.58
68746;SHT31;73143;45.456;11.064;2023-12-14T13:45:28;9.52;85.40
68746;SHT31;73143;45.456;11.064;2023-12-14T13:48:08;9.47;85.67
68746;SHT31;73143;45.456;11.064;2023-12-14T13:50:45;9.45;85.81
68746;SHT31;73143;45.456;11.064;2023-12-14T13:53:22;9.41;85.86
68746;SHT31;73143;45.456;11.064;2023-12-14T13:56:00;9.41;85.92
68746;SHT31;73143;45.456;11.064;2023-12-14T13:58:39;9.44;85.97
68746;SHT31;73143;45.456;11.064;2023-12-14T14:01:16;9.51;85.99
68746;SHT31;73143;45.456;11.064;2023-12-14T14:03:53;9.55;85.95
68746;SHT31;73143;45.456;11.064;2023-12-14T14:06:30;9.61;85.92
68746;SHT31;73143;45.456;11.064;2023-12-14T14:09:07;9.69;85.86
68746;SHT31;73143;45.456;11.064;2023-12-14T14:11:44;9.72;85.90
68746;SHT31;73143;45.456;11.064;2023-12-14T14:14:24;9.73;85.90
68746;SHT31;73143;45.456;11.064;2023-12-14T14:17:05;9.74;85.90
68746;SHT31;73143;45.456;11.064;2023-12-14T14:19:42;9.77;85.89
68746;SHT31;73143;45.456;11.064;2023-12-14T14:22:18;9.79;85.90
68746;SHT31;73143;45.456;11.064;2023-12-14T14:24:54;9.81;85.93
68746;SHT31;73143;45.456;11.064;2023-12-14T14:27:31;9.83;85.92
68746;SHT31;73143;45.456;11.064;2023-12-14T14:30:13;9.83;85.90
68746;SHT31;73143;45.456;11.064;2023-12-14T14:32:52;9.80;85.87
68746;SHT31;73143;45.456;11.064;2023-12-14T14:35:28;9.77;86.10
68746;SHT31;73143;45.456;11.064;2023-12-14T14:38:06;9.71;86.23
68746;SHT31;73143;45.456;11.064;2023-12-14T14:40:43;9.68;86.34
68746;SHT31;73143;45.456;11.064;2023-12-14T14:43:20;9.65;86.38
68746;SHT31;73143;45.456;11.064;2023-12-14T14:45:57;9.62;86.40
68746;SHT31;73143;45.456;11.064;2023-12-14T14:48:34;9.56;86.48
68746;SHT31;73143;45.456;11.064;2023-12-14T14:51:12;9.53;86.64
68746;SHT31;73143;45.456;11.064;2023-12-14T14:53:50;9.48;86.63
68746;SHT31;73143;45.456;11.064;2023-12-14T14:56:27;9.43;86.85
68746;SHT31;73143;45.456;11.064;2023-12-14T14:59:04;9.39;86.98
68746;SHT31;73143;45.456;11.064;2023-12-14T15:01:45;9.34;87.05
68746;SHT31;73143;45.456;11.064;2023-12-14T15:04:22;9.29;87.20
68746;SHT31;73143;45.456;11.064;2023-12-14T15:06:59;9.23;87.21
68746;SHT31;73143;45.456;11.064;2023-12-14T15:09:36;9.17;87.20
68746;SHT31;73143;45.456;11.064;2023-12-14T15:12:14;9.07;87.28
68746;SHT31;73143;45.456;11.064;2023-12-14T15:14:51;9.01;87.38
68746;SHT31;73143;45.456;11.064;2023-12-14T15:17:29;8.96;87.48
68746;SHT31;73143;45.456;11.064;2023-12-14T15:20:06;8.91;87.51
68746;SHT31;73143;45.456;11.064;2023-12-14T15:22:46;8.85;87.50
68746;SHT31;73143;45.456;11.064;2023-12-14T15:25:23;8.82;87.54
68746;SHT31;73143;45.456;11.064;2023-12-14T15:27:59;8.75;87.50
68746;SHT31;73143;45.456;11.064;2023-12-14T15:30:36;8.69;87.51
68746;SHT31;73143;45.456;11.064;2023-12-14T15:33:13;8.65;87.63
68746;SHT31;73143;45.456;11.064;2023-12-14T15:35:52;8.60;87.54
68746;SHT31;73143;45.456;11.064;2023-12-14T15:38:29;8.54;87.67
68746;SHT31;73143;45.456;11.064;2023-12-14T15:41:07;8.51;87.66
68746;SHT31;73143;45.456;11.064;2023-12-14T15:43:44;8.48;87.71
68746;SHT31;73143;45.456;11.064;2023-12-14T15:46:21;8.47;87.71
68746;SHT31;73143;45.456;11.064;2023-12-14T15:48:58;8.45;87.56
68746;SHT31;73143;45.456;11.064;2023-12-14T15:51:36;8.43;87.55
68746;SHT31;73143;45.456;11.064;2023-12-14T15:54:16;8.41;87.42
68746;SHT31;73143;45.456;11.064;2023-12-14T15:56:53;8.40;87.45
68746;SHT31;73143;45.456;11.064;2023-12-14T15:59:38;8.39;87.45
68746;SHT31;73143;45.456;11.064;2023-12-14T16:03:00;8.36;87.40
68746;SHT31;73143;45.456;11.064;2023-12-14T16:05:39;8.36;87.30
68746;SHT31;73143;45.456;11.064;2023-12-14T16:08:15;8.35;87.19
68746;SHT31;73143;45.456;11.064;2023-12-14T16:10:52;8.32;87.06
68746;SHT31;73143;45.456;11.064;2023-12-14T16:13:30;8.30;86.99
68746;SHT31;73143;45.456;11.064;2023-12-14T16:16:08;8.26;86.88
68746;SHT31;73143;45.456;11.064;2023-12-14T16:18:45;8.23;86.84
68746;SHT31;73143;45.456;11.064;2023-12-14T16:21:24;8.20;86.85
68746;SHT31;73143;45.456;11.064;2023-12-14T16:24:01;8.17;86.78
68746;SHT31;73143;45.456;11.064;2023-12-14T16:26:41;8.13;86.59
68746;SHT31;73143;45.456;11.064;2023-12-14T16:29:28;8.08;86.38
68746;SHT31;73143;45.456;11.064;2023-12-14T16:32:07;8.04;86.25
68746;SHT31;73143;45.456;11.064;2023-12-14T16:34:46;7.98;86.08
68746;SHT31;73143;45.456;11.064;2023-12-14T16:37:24;7.89;85.77
68746;SHT31;73143;45.456;11.064;2023-12-14T16:40:07;7.82;85.63
68746;SHT31;73143;45.456;11.064;2023-12-14T16:42:47;7.72;85.19
68746;SHT31;73143;45.456;11.064;2023-12-14T16:45:24;7.60;85.15